Salida, CO

6:10 AM MST on December 07, 2016 (GMT -0700)
CR 141 | | Change Station

Elev 7195 ft 38.54 °N, 106.02 °W | Updated 12 seconds ago

Overcast
Overcast
11.5 °F
Feels Like 11 °F
N
2.0
Wind Variable Wind from SE
Gusts 4.0 mph

Today
High -- | Low -- °F
--% Chance of Precip.
Yesterday
High -- | Low -- °F
Precip. -- in
Pressure 29.92 in
Visibility 10.0 miles
Clouds Scattered Clouds 4800 ft
Overcast 6500 ft
Windchill 11 °F
Dew Point 6 °F
Humidity 80%
Rainfall 0.00 in
Snow Depth Not available.
7:08 AM 4:42 PM
First Quarter, 52% visible
METAR KANK 071255Z AUTO 12005KT 10SM SCT048 OVC065 M11/M13 A2992 RMK AO1 T11061130
Pressure 29.92 in
Visibility 10.0 miles
Clouds Scattered Clouds 4800 ft
Overcast 6500 ft
Windchill 11 °F
Dew Point 6 °F
Humidity 80%
Rainfall 0.00 in
Snow Depth Not available.
7:08 AM 4:42 PM
First Quarter, 52% visible
METAR KANK 071255Z AUTO 12005KT 10SM SCT048 OVC065 M11/M13 A2992 RMK AO1 T11061130

10-Day Weather Forecast

Almanac

Astronomy

Dec. 07, 2016 Rise Set
Actual Time
Civil Twilight
Nautical Twilight
Astronomical Twilight
Moon
Length of Visible Light
Length of Day
Tomorrow will be .
, % of the Moon is Illuminated

Today's Extremes

State Highs State Lows

Community

WunderPhotos

Upload Photos

1,956,112 photos uploaded!

WunderBlog® & News

Nearby

Air Quality

  Air Quality AQ Index Pollutant
Not available.

Snow Depth

Station Depth Elevation

Earthquake Activity

City Distance Mag. Time & Date
Minimum magnitude displayed is 2.5.

Coastal Water Temperatures

Place Temperature

Stations

Nearby Weather Stations

Station Location Temp. Windchill Dew Point Humidity Wind Precip. Elev Updated Type
                   

Watches & Warnings

There are currently no watches in effect.